< < Back
Terminal Aerodrome Forecast


Current Version              Previous Versions:   1  2  3  4  5  6  7  8  9  

Terminal Aerodrome Forecast

770
FTUS44 KBMX 280500
TAFMGM
TAF
KMGM 280528Z 2806/2906 35004KT P6SM SKC
     FM281500 03004KT P6SM SKC=



Latest METAR

884
SAUS80 KWBC 290000 RRC
MTRMGM
METAR KMGM 282353Z 20003KT 10SM CLR 12/M02 A3026 RMK AO2 SLP247
T01171017 10150 20100 53002


USA.gov is the U.S. government's official web portal to all federal, state and local government web resources and services.